sensor_id;sensor_type;location;lat;lon;timestamp;P1;durP1;ratioP1;P2;durP2;ratioP2
21657;SDS011;10990;48.174;9.782;2023-03-03T00:01:05;67.67;;;26.43;;
21657;SDS011;10990;48.174;9.782;2023-03-03T00:03:32;65.20;;;26.37;;
21657;SDS011;10990;48.174;9.782;2023-03-03T00:05:59;64.37;;;26.07;;
21657;SDS011;10990;48.174;9.782;2023-03-03T00:08:27;65.47;;;25.80;;
21657;SDS011;10990;48.174;9.782;2023-03-03T00:10:54;61.17;;;25.07;;
21657;SDS011;10990;48.174;9.782;2023-03-03T00:13:21;68.37;;;27.07;;
21657;SDS011;10990;48.174;9.782;2023-03-03T00:15:50;65.37;;;25.53;;
21657;SDS011;10990;48.174;9.782;2023-03-03T00:18:21;67.10;;;27.50;;
21657;SDS011;10990;48.174;9.782;2023-03-03T00:20:51;64.53;;;26.70;;
21657;SDS011;10990;48.174;9.782;2023-03-03T00:23:23;64.17;;;26.13;;
21657;SDS011;10990;48.174;9.782;2023-03-03T00:25:55;63.20;;;25.80;;
21657;SDS011;10990;48.174;9.782;2023-03-03T00:28:24;64.10;;;24.97;;
21657;SDS011;10990;48.174;9.782;2023-03-03T00:30:53;66.90;;;27.70;;
21657;SDS011;10990;48.174;9.782;2023-03-03T00:33:26;68.37;;;27.83;;
21657;SDS011;10990;48.174;9.782;2023-03-03T00:35:58;67.50;;;26.70;;
21657;SDS011;10990;48.174;9.782;2023-03-03T00:38:47;65.87;;;26.17;;
21657;SDS011;10990;48.174;9.782;2023-03-03T00:41:15;68.07;;;27.17;;
21657;SDS011;10990;48.174;9.782;2023-03-03T00:43:45;69.27;;;27.63;;
21657;SDS011;10990;48.174;9.782;2023-03-03T00:46:14;60.30;;;25.30;;
21657;SDS011;10990;48.174;9.782;2023-03-03T00:48:44;65.73;;;26.90;;
21657;SDS011;10990;48.174;9.782;2023-03-03T00:51:18;68.77;;;27.37;;
21657;SDS011;10990;48.174;9.782;2023-03-03T00:53:51;64.07;;;25.77;;
21657;SDS011;10990;48.174;9.782;2023-03-03T00:56:18;68.77;;;27.77;;
21657;SDS011;10990;48.174;9.782;2023-03-03T00:58:45;67.93;;;26.07;;
21657;SDS011;10990;48.174;9.782;2023-03-03T01:01:13;69.20;;;27.80;;
21657;SDS011;10990;48.174;9.782;2023-03-03T01:03:46;66.40;;;26.37;;
21657;SDS011;10990;48.174;9.782;2023-03-03T01:06:13;67.87;;;26.67;;
21657;SDS011;10990;48.174;9.782;2023-03-03T01:08:41;66.87;;;26.87;;
21657;SDS011;10990;48.174;9.782;2023-03-03T01:11:09;68.07;;;26.60;;
21657;SDS011;10990;48.174;9.782;2023-03-03T01:13:40;62.13;;;25.73;;
21657;SDS011;10990;48.174;9.782;2023-03-03T01:16:11;68.07;;;27.33;;
21657;SDS011;10990;48.174;9.782;2023-03-03T01:18:37;64.77;;;26.50;;
21657;SDS011;10990;48.174;9.782;2023-03-03T01:21:07;63.80;;;26.90;;
21657;SDS011;10990;48.174;9.782;2023-03-03T01:23:34;64.60;;;24.90;;
21657;SDS011;10990;48.174;9.782;2023-03-03T01:26:02;62.70;;;25.07;;
21657;SDS011;10990;48.174;9.782;2023-03-03T01:28:29;68.63;;;28.23;;
21657;SDS011;10990;48.174;9.782;2023-03-03T01:30:59;67.97;;;26.03;;
21657;SDS011;10990;48.174;9.782;2023-03-03T01:33:26;63.83;;;25.63;;
21657;SDS011;10990;48.174;9.782;2023-03-03T01:35:53;63.60;;;26.17;;
21657;SDS011;10990;48.174;9.782;2023-03-03T01:38:21;70.53;;;27.40;;
21657;SDS011;10990;48.174;9.782;2023-03-03T01:40:51;67.23;;;27.50;;
21657;SDS011;10990;48.174;9.782;2023-03-03T01:43:19;69.90;;;27.07;;
21657;SDS011;10990;48.174;9.782;2023-03-03T01:49:01;63.10;;;26.03;;
21657;SDS011;10990;48.174;9.782;2023-03-03T01:51:33;63.13;;;25.80;;
21657;SDS011;10990;48.174;9.782;2023-03-03T01:54:06;65.67;;;26.20;;
21657;SDS011;10990;48.174;9.782;2023-03-03T01:56:38;64.77;;;27.00;;
21657;SDS011;10990;48.174;9.782;2023-03-03T01:59:08;66.83;;;27.03;;
21657;SDS011;10990;48.174;9.782;2023-03-03T02:01:39;68.63;;;26.93;;
21657;SDS011;10990;48.174;9.782;2023-03-03T02:04:08;65.83;;;26.63;;
21657;SDS011;10990;48.174;9.782;2023-03-03T02:06:35;64.13;;;26.57;;
21657;SDS011;10990;48.174;9.782;2023-03-03T02:09:09;61.20;;;25.47;;
21657;SDS011;10990;48.174;9.782;2023-03-03T02:11:43;68.03;;;27.43;;
21657;SDS011;10990;48.174;9.782;2023-03-03T02:14:12;64.70;;;26.50;;
21657;SDS011;10990;48.174;9.782;2023-03-03T02:16:41;63.00;;;25.87;;
21657;SDS011;10990;48.174;9.782;2023-03-03T02:19:12;62.60;;;25.73;;
21657;SDS011;10990;48.174;9.782;2023-03-03T02:21:47;68.73;;;26.60;;
21657;SDS011;10990;48.174;9.782;2023-03-03T02:24:17;63.63;;;26.17;;
21657;SDS011;10990;48.174;9.782;2023-03-03T02:26:52;66.13;;;25.73;;
21657;SDS011;10990;48.174;9.782;2023-03-03T02:29:19;67.73;;;26.63;;
21657;SDS011;10990;48.174;9.782;2023-03-03T02:31:46;63.10;;;26.40;;
21657;SDS011;10990;48.174;9.782;2023-03-03T02:34:13;67.37;;;27.60;;
21657;SDS011;10990;48.174;9.782;2023-03-03T02:36:40;64.77;;;25.90;;
21657;SDS011;10990;48.174;9.782;2023-03-03T02:39:08;62.40;;;25.57;;
21657;SDS011;10990;48.174;9.782;2023-03-03T02:41:38;68.43;;;27.07;;
21657;SDS011;10990;48.174;9.782;2023-03-03T02:44:10;68.10;;;26.73;;
21657;SDS011;10990;48.174;9.782;2023-03-03T02:46:41;70.07;;;27.40;;
21657;SDS011;10990;48.174;9.782;2023-03-03T02:49:11;69.23;;;27.60;;
21657;SDS011;10990;48.174;9.782;2023-03-03T02:51:40;70.50;;;28.40;;
21657;SDS011;10990;48.174;9.782;2023-03-03T02:54:07;64.93;;;26.33;;
21657;SDS011;10990;48.174;9.782;2023-03-03T02:56:35;70.50;;;29.13;;
21657;SDS011;10990;48.174;9.782;2023-03-03T02:59:02;70.83;;;28.03;;
21657;SDS011;10990;48.174;9.782;2023-03-03T03:01:35;65.23;;;27.03;;
21657;SDS011;10990;48.174;9.782;2023-03-03T03:04:04;68.50;;;27.03;;
21657;SDS011;10990;48.174;9.782;2023-03-03T03:06:34;64.13;;;26.57;;
21657;SDS011;10990;48.174;9.782;2023-03-03T03:09:01;71.30;;;28.80;;
21657;SDS011;10990;48.174;9.782;2023-03-03T03:11:29;68.60;;;27.87;;
21657;SDS011;10990;48.174;9.782;2023-03-03T03:13:56;68.70;;;28.07;;
21657;SDS011;10990;48.174;9.782;2023-03-03T03:16:23;69.13;;;28.57;;
21657;SDS011;10990;48.174;9.782;2023-03-03T03:18:51;69.57;;;27.20;;
21657;SDS011;10990;48.174;9.782;2023-03-03T03:21:18;68.10;;;28.10;;
21657;SDS011;10990;48.174;9.782;2023-03-03T03:23:45;71.00;;;27.80;;
21657;SDS011;10990;48.174;9.782;2023-03-03T03:26:12;70.37;;;28.63;;
21657;SDS011;10990;48.174;9.782;2023-03-03T03:28:39;69.57;;;27.90;;
21657;SDS011;10990;48.174;9.782;2023-03-03T03:31:07;64.60;;;26.83;;
21657;SDS011;10990;48.174;9.782;2023-03-03T03:33:34;65.17;;;27.63;;
21657;SDS011;10990;48.174;9.782;2023-03-03T03:36:04;69.77;;;28.03;;
21657;SDS011;10990;48.174;9.782;2023-03-03T03:38:32;71.07;;;27.93;;
21657;SDS011;10990;48.174;9.782;2023-03-03T03:41:02;69.40;;;26.87;;
21657;SDS011;10990;48.174;9.782;2023-03-03T03:43:30;67.60;;;27.47;;
21657;SDS011;10990;48.174;9.782;2023-03-03T03:45:57;65.10;;;26.50;;
21657;SDS011;10990;48.174;9.782;2023-03-03T03:48:24;64.40;;;26.73;;
21657;SDS011;10990;48.174;9.782;2023-03-03T03:50:51;67.83;;;26.73;;
21657;SDS011;10990;48.174;9.782;2023-03-03T03:53:21;65.67;;;26.43;;
21657;SDS011;10990;48.174;9.782;2023-03-03T03:55:48;71.47;;;29.33;;
21657;SDS011;10990;48.174;9.782;2023-03-03T03:58:16;66.30;;;26.83;;
21657;SDS011;10990;48.174;9.782;2023-03-03T04:00:49;67.90;;;26.57;;
21657;SDS011;10990;48.174;9.782;2023-03-03T04:03:17;68.40;;;27.13;;
21657;SDS011;10990;48.174;9.782;2023-03-03T04:05:46;71.17;;;27.90;;
21657;SDS011;10990;48.174;9.782;2023-03-03T04:08:13;71.23;;;29.30;;
21657;SDS011;10990;48.174;9.782;2023-03-03T04:10:42;68.10;;;27.20;;
21657;SDS011;10990;48.174;9.782;2023-03-03T04:13:10;70.50;;;28.30;;
21657;SDS011;10990;48.174;9.782;2023-03-03T04:15:37;73.33;;;28.47;;
21657;SDS011;10990;48.174;9.782;2023-03-03T04:18:04;69.73;;;27.63;;
21657;SDS011;10990;48.174;9.782;2023-03-03T04:20:31;66.33;;;28.00;;
21657;SDS011;10990;48.174;9.782;2023-03-03T04:22:58;67.30;;;27.50;;
21657;SDS011;10990;48.174;9.782;2023-03-03T04:25:25;73.10;;;28.17;;
21657;SDS011;10990;48.174;9.782;2023-03-03T04:27:54;66.80;;;28.13;;
21657;SDS011;10990;48.174;9.782;2023-03-03T04:30:21;67.10;;;27.63;;
21657;SDS011;10990;48.174;9.782;2023-03-03T04:32:52;74.17;;;29.83;;
21657;SDS011;10990;48.174;9.782;2023-03-03T04:35:22;71.90;;;27.07;;
21657;SDS011;10990;48.174;9.782;2023-03-03T04:37:48;77.83;;;30.27;;
21657;SDS011;10990;48.174;9.782;2023-03-03T04:40:16;69.80;;;28.70;;
21657;SDS011;10990;48.174;9.782;2023-03-03T04:42:45;74.80;;;29.60;;
21657;SDS011;10990;48.174;9.782;2023-03-03T04:45:13;74.53;;;30.67;;
21657;SDS011;10990;48.174;9.782;2023-03-03T04:47:41;69.90;;;29.47;;
21657;SDS011;10990;48.174;9.782;2023-03-03T04:50:08;70.60;;;28.43;;
21657;SDS011;10990;48.174;9.782;2023-03-03T04:52:36;73.73;;;28.50;;
21657;SDS011;10990;48.174;9.782;2023-03-03T04:55:04;67.50;;;27.73;;
21657;SDS011;10990;48.174;9.782;2023-03-03T04:57:31;74.97;;;29.77;;
21657;SDS011;10990;48.174;9.782;2023-03-03T04:59:58;70.20;;;28.37;;
21657;SDS011;10990;48.174;9.782;2023-03-03T05:02:26;74.93;;;28.97;;
21657;SDS011;10990;48.174;9.782;2023-03-03T05:04:54;69.07;;;27.83;;
21657;SDS011;10990;48.174;9.782;2023-03-03T05:07:21;69.93;;;28.63;;
21657;SDS011;10990;48.174;9.782;2023-03-03T05:09:48;76.67;;;28.50;;
21657;SDS011;10990;48.174;9.782;2023-03-03T05:12:15;73.87;;;29.57;;
21657;SDS011;10990;48.174;9.782;2023-03-03T05:14:42;76.07;;;30.30;;
21657;SDS011;10990;48.174;9.782;2023-03-03T05:17:08;75.80;;;28.83;;
21657;SDS011;10990;48.174;9.782;2023-03-03T05:19:37;68.17;;;28.40;;
21657;SDS011;10990;48.174;9.782;2023-03-03T05:22:03;75.53;;;29.10;;
21657;SDS011;10990;48.174;9.782;2023-03-03T05:24:30;75.37;;;29.97;;
21657;SDS011;10990;48.174;9.782;2023-03-03T05:26:57;71.17;;;28.43;;
21657;SDS011;10990;48.174;9.782;2023-03-03T05:29:23;80.83;;;31.77;;
21657;SDS011;10990;48.174;9.782;2023-03-03T05:31:50;80.00;;;32.53;;
21657;SDS011;10990;48.174;9.782;2023-03-03T05:34:17;75.17;;;30.77;;
21657;SDS011;10990;48.174;9.782;2023-03-03T05:36:45;81.67;;;29.93;;
21657;SDS011;10990;48.174;9.782;2023-03-03T05:39:12;71.90;;;29.07;;
21657;SDS011;10990;48.174;9.782;2023-03-03T05:41:38;78.40;;;30.27;;
21657;SDS011;10990;48.174;9.782;2023-03-03T05:44:05;73.70;;;28.97;;
21657;SDS011;10990;48.174;9.782;2023-03-03T05:46:32;73.27;;;29.43;;
21657;SDS011;10990;48.174;9.782;2023-03-03T05:48:59;76.23;;;29.93;;
21657;SDS011;10990;48.174;9.782;2023-03-03T05:51:25;76.83;;;30.33;;
21657;SDS011;10990;48.174;9.782;2023-03-03T05:53:53;73.67;;;29.97;;
21657;SDS011;10990;48.174;9.782;2023-03-03T05:56:20;81.53;;;31.80;;
21657;SDS011;10990;48.174;9.782;2023-03-03T05:58:47;78.70;;;32.50;;
21657;SDS011;10990;48.174;9.782;2023-03-03T06:01:13;77.70;;;30.17;;
21657;SDS011;10990;48.174;9.782;2023-03-03T06:03:40;72.00;;;29.57;;
21657;SDS011;10990;48.174;9.782;2023-03-03T06:06:07;81.00;;;31.37;;
21657;SDS011;10990;48.174;9.782;2023-03-03T06:08:34;76.43;;;29.90;;
21657;SDS011;10990;48.174;9.782;2023-03-03T06:11:02;78.47;;;30.63;;
21657;SDS011;10990;48.174;9.782;2023-03-03T06:13:29;78.03;;;30.83;;
21657;SDS011;10990;48.174;9.782;2023-03-03T06:15:56;77.63;;;29.90;;
21657;SDS011;10990;48.174;9.782;2023-03-03T06:18:22;80.57;;;31.67;;
21657;SDS011;10990;48.174;9.782;2023-03-03T06:20:50;77.23;;;30.03;;
21657;SDS011;10990;48.174;9.782;2023-03-03T06:23:17;79.67;;;31.27;;
21657;SDS011;10990;48.174;9.782;2023-03-03T06:25:44;76.67;;;30.63;;
21657;SDS011;10990;48.174;9.782;2023-03-03T06:28:13;75.60;;;30.63;;
21657;SDS011;10990;48.174;9.782;2023-03-03T06:30:40;72.60;;;30.07;;
21657;SDS011;10990;48.174;9.782;2023-03-03T06:33:06;81.33;;;31.90;;
21657;SDS011;10990;48.174;9.782;2023-03-03T06:35:33;80.77;;;31.53;;
21657;SDS011;10990;48.174;9.782;2023-03-03T06:38:00;73.90;;;29.90;;
21657;SDS011;10990;48.174;9.782;2023-03-03T06:40:27;75.00;;;29.70;;
21657;SDS011;10990;48.174;9.782;2023-03-03T06:42:54;70.93;;;30.00;;
21657;SDS011;10990;48.174;9.782;2023-03-03T06:45:22;83.47;;;33.27;;
21657;SDS011;10990;48.174;9.782;2023-03-03T06:47:48;77.57;;;32.27;;
21657;SDS011;10990;48.174;9.782;2023-03-03T06:50:15;79.40;;;31.20;;
21657;SDS011;10990;48.174;9.782;2023-03-03T06:52:45;73.20;;;29.67;;
21657;SDS011;10990;48.174;9.782;2023-03-03T06:55:12;78.13;;;31.00;;
21657;SDS011;10990;48.174;9.782;2023-03-03T06:57:45;79.33;;;32.10;;
21657;SDS011;10990;48.174;9.782;2023-03-03T07:00:16;76.97;;;30.97;;
21657;SDS011;10990;48.174;9.782;2023-03-03T07:02:46;76.97;;;31.47;;
21657;SDS011;10990;48.174;9.782;2023-03-03T07:05:19;78.07;;;32.03;;
21657;SDS011;10990;48.174;9.782;2023-03-03T07:07:46;78.23;;;31.40;;
21657;SDS011;10990;48.174;9.782;2023-03-03T07:10:17;73.97;;;30.63;;
21657;SDS011;10990;48.174;9.782;2023-03-03T07:12:47;77.43;;;30.13;;
21657;SDS011;10990;48.174;9.782;2023-03-03T07:15:14;75.80;;;30.20;;
21657;SDS011;10990;48.174;9.782;2023-03-03T07:17:43;77.60;;;30.73;;
21657;SDS011;10990;48.174;9.782;2023-03-03T07:20:17;76.40;;;31.40;;
21657;SDS011;10990;48.174;9.782;2023-03-03T07:22:45;79.03;;;31.67;;
21657;SDS011;10990;48.174;9.782;2023-03-03T07:25:18;73.20;;;30.27;;
21657;SDS011;10990;48.174;9.782;2023-03-03T07:27:49;78.17;;;30.77;;
21657;SDS011;10990;48.174;9.782;2023-03-03T07:30:18;75.33;;;30.47;;
21657;SDS011;10990;48.174;9.782;2023-03-03T07:32:50;80.13;;;31.63;;
21657;SDS011;10990;48.174;9.782;2023-03-03T07:38:22;72.33;;;28.87;;
21657;SDS011;10990;48.174;9.782;2023-03-03T07:40:51;74.43;;;29.70;;
21657;SDS011;10990;48.174;9.782;2023-03-03T07:43:33;77.60;;;31.47;;
21657;SDS011;10990;48.174;9.782;2023-03-03T07:46:02;77.47;;;30.30;;
21657;SDS011;10990;48.174;9.782;2023-03-03T07:48:45;78.77;;;32.33;;
21657;SDS011;10990;48.174;9.782;2023-03-03T07:51:15;76.30;;;30.03;;
21657;SDS011;10990;48.174;9.782;2023-03-03T07:53:47;76.73;;;30.50;;
21657;SDS011;10990;48.174;9.782;2023-03-03T07:56:16;79.93;;;31.30;;
21657;SDS011;10990;48.174;9.782;2023-03-03T07:58:50;76.40;;;31.70;;
21657;SDS011;10990;48.174;9.782;2023-03-03T08:01:28;76.20;;;30.27;;
21657;SDS011;10990;48.174;9.782;2023-03-03T08:04:08;75.80;;;31.17;;
21657;SDS011;10990;48.174;9.782;2023-03-03T08:06:43;74.33;;;30.50;;
21657;SDS011;10990;48.174;9.782;2023-03-03T08:12:17;88.80;;;32.63;;
21657;SDS011;10990;48.174;9.782;2023-03-03T08:14:50;74.07;;;30.93;;
21657;SDS011;10990;48.174;9.782;2023-03-03T08:17:19;82.03;;;32.30;;
21657;SDS011;10990;48.174;9.782;2023-03-03T08:19:47;71.80;;;29.83;;
21657;SDS011;10990;48.174;9.782;2023-03-03T08:22:17;76.60;;;31.83;;
21657;SDS011;10990;48.174;9.782;2023-03-03T08:24:50;72.60;;;30.43;;
21657;SDS011;10990;48.174;9.782;2023-03-03T08:27:16;77.67;;;30.77;;
21657;SDS011;10990;48.174;9.782;2023-03-03T08:29:43;73.93;;;30.63;;
21657;SDS011;10990;48.174;9.782;2023-03-03T08:32:10;73.97;;;30.30;;
21657;SDS011;10990;48.174;9.782;2023-03-03T08:34:36;76.37;;;32.33;;
21657;SDS011;10990;48.174;9.782;2023-03-03T08:37:03;79.17;;;30.47;;
21657;SDS011;10990;48.174;9.782;2023-03-03T08:39:32;76.80;;;30.73;;
21657;SDS011;10990;48.174;9.782;2023-03-03T08:41:58;74.67;;;30.23;;
21657;SDS011;10990;48.174;9.782;2023-03-03T08:44:25;71.67;;;30.20;;
21657;SDS011;10990;48.174;9.782;2023-03-03T08:46:52;71.37;;;31.57;;
21657;SDS011;10990;48.174;9.782;2023-03-03T08:49:19;75.33;;;32.67;;
21657;SDS011;10990;48.174;9.782;2023-03-03T08:51:46;74.47;;;32.50;;
21657;SDS011;10990;48.174;9.782;2023-03-03T08:54:13;77.10;;;32.90;;
21657;SDS011;10990;48.174;9.782;2023-03-03T08:56:41;70.63;;;29.80;;
21657;SDS011;10990;48.174;9.782;2023-03-03T08:59:08;69.73;;;31.17;;
21657;SDS011;10990;48.174;9.782;2023-03-03T09:01:35;70.20;;;30.03;;
21657;SDS011;10990;48.174;9.782;2023-03-03T09:04:02;72.07;;;31.37;;
21657;SDS011;10990;48.174;9.782;2023-03-03T09:06:29;70.97;;;30.40;;
21657;SDS011;10990;48.174;9.782;2023-03-03T09:08:55;71.60;;;30.23;;
21657;SDS011;10990;48.174;9.782;2023-03-03T09:11:23;68.67;;;30.27;;
21657;SDS011;10990;48.174;9.782;2023-03-03T09:13:54;65.13;;;29.57;;
21657;SDS011;10990;48.174;9.782;2023-03-03T09:16:28;68.70;;;31.33;;
21657;SDS011;10990;48.174;9.782;2023-03-03T09:19:01;69.40;;;29.43;;
21657;SDS011;10990;48.174;9.782;2023-03-03T09:21:41;65.87;;;29.43;;
21657;SDS011;10990;48.174;9.782;2023-03-03T09:24:10;67.17;;;30.07;;
21657;SDS011;10990;48.174;9.782;2023-03-03T09:26:49;64.93;;;28.33;;
21657;SDS011;10990;48.174;9.782;2023-03-03T09:29:22;70.07;;;30.37;;
21657;SDS011;10990;48.174;9.782;2023-03-03T09:31:52;69.83;;;31.73;;
21657;SDS011;10990;48.174;9.782;2023-03-03T09:34:20;67.50;;;28.90;;
21657;SDS011;10990;48.174;9.782;2023-03-03T09:36:49;66.57;;;28.97;;
21657;SDS011;10990;48.174;9.782;2023-03-03T09:39:17;66.13;;;29.53;;
21657;SDS011;10990;48.174;9.782;2023-03-03T09:41:52;64.70;;;29.73;;
21657;SDS011;10990;48.174;9.782;2023-03-03T09:44:46;66.07;;;29.93;;
21657;SDS011;10990;48.174;9.782;2023-03-03T09:47:41;64.73;;;28.67;;
21657;SDS011;10990;48.174;9.782;2023-03-03T09:50:20;66.77;;;30.20;;
21657;SDS011;10990;48.174;9.782;2023-03-03T09:52:56;68.07;;;30.30;;
21657;SDS011;10990;48.174;9.782;2023-03-03T09:55:40;67.27;;;29.73;;
21657;SDS011;10990;48.174;9.782;2023-03-03T09:58:20;66.03;;;29.10;;
21657;SDS011;10990;48.174;9.782;2023-03-03T10:01:07;67.43;;;29.37;;
21657;SDS011;10990;48.174;9.782;2023-03-03T10:03:47;67.97;;;29.47;;
21657;SDS011;10990;48.174;9.782;2023-03-03T10:06:36;66.67;;;30.43;;
21657;SDS011;10990;48.174;9.782;2023-03-03T10:09:19;70.10;;;30.50;;
21657;SDS011;10990;48.174;9.782;2023-03-03T10:12:04;69.90;;;30.23;;
21657;SDS011;10990;48.174;9.782;2023-03-03T10:14:48;66.63;;;30.30;;
21657;SDS011;10990;48.174;9.782;2023-03-03T10:17:27;68.63;;;31.87;;
21657;SDS011;10990;48.174;9.782;2023-03-03T10:20:06;69.03;;;29.83;;
21657;SDS011;10990;48.174;9.782;2023-03-03T10:22:44;66.00;;;29.47;;
21657;SDS011;10990;48.174;9.782;2023-03-03T10:25:20;65.47;;;30.33;;
21657;SDS011;10990;48.174;9.782;2023-03-03T10:28:00;69.10;;;30.30;;
21657;SDS011;10990;48.174;9.782;2023-03-03T10:30:39;65.57;;;31.97;;
21657;SDS011;10990;48.174;9.782;2023-03-03T10:33:19;67.63;;;30.40;;
21657;SDS011;10990;48.174;9.782;2023-03-03T10:39:06;67.07;;;29.97;;
21657;SDS011;10990;48.174;9.782;2023-03-03T10:45:03;68.60;;;28.97;;
21657;SDS011;10990;48.174;9.782;2023-03-03T10:47:57;64.00;;;29.87;;
21657;SDS011;10990;48.174;9.782;2023-03-03T10:50:40;66.03;;;30.30;;
21657;SDS011;10990;48.174;9.782;2023-03-03T10:53:20;67.13;;;29.63;;
21657;SDS011;10990;48.174;9.782;2023-03-03T10:55:53;65.17;;;29.37;;
21657;SDS011;10990;48.174;9.782;2023-03-03T10:58:47;69.60;;;32.57;;
21657;SDS011;10990;48.174;9.782;2023-03-03T11:01:20;68.20;;;30.53;;
21657;SDS011;10990;48.174;9.782;2023-03-03T11:03:58;62.13;;;28.37;;
21657;SDS011;10990;48.174;9.782;2023-03-03T11:06:38;65.73;;;30.33;;
21657;SDS011;10990;48.174;9.782;2023-03-03T11:09:19;68.67;;;29.80;;
21657;SDS011;10990;48.174;9.782;2023-03-03T11:11:58;64.60;;;29.73;;
21657;SDS011;10990;48.174;9.782;2023-03-03T11:14:35;70.27;;;31.00;;
21657;SDS011;10990;48.174;9.782;2023-03-03T11:17:12;64.10;;;29.00;;
21657;SDS011;10990;48.174;9.782;2023-03-03T11:19:49;66.77;;;30.90;;
21657;SDS011;10990;48.174;9.782;2023-03-03T11:22:30;64.27;;;28.63;;
21657;SDS011;10990;48.174;9.782;2023-03-03T11:25:10;66.93;;;30.70;;
21657;SDS011;10990;48.174;9.782;2023-03-03T11:27:52;65.83;;;31.20;;
21657;SDS011;10990;48.174;9.782;2023-03-03T11:30:28;66.77;;;31.50;;
21657;SDS011;10990;48.174;9.782;2023-03-03T11:33:09;67.13;;;30.80;;
21657;SDS011;10990;48.174;9.782;2023-03-03T11:35:43;62.70;;;29.40;;
21657;SDS011;10990;48.174;9.782;2023-03-03T11:38:22;64.50;;;30.27;;
21657;SDS011;10990;48.174;9.782;2023-03-03T11:41:00;71.60;;;32.23;;
21657;SDS011;10990;48.174;9.782;2023-03-03T11:43:31;69.77;;;32.00;;
21657;SDS011;10990;48.174;9.782;2023-03-03T11:46:04;75.57;;;32.53;;
21657;SDS011;10990;48.174;9.782;2023-03-03T11:48:35;69.47;;;32.93;;
21657;SDS011;10990;48.174;9.782;2023-03-03T11:51:10;67.00;;;30.80;;
21657;SDS011;10990;48.174;9.782;2023-03-03T11:53:49;62.53;;;29.40;;
21657;SDS011;10990;48.174;9.782;2023-03-03T11:56:23;63.33;;;30.30;;
21657;SDS011;10990;48.174;9.782;2023-03-03T11:59:02;67.63;;;31.27;;
21657;SDS011;10990;48.174;9.782;2023-03-03T12:01:41;72.77;;;33.50;;
21657;SDS011;10990;48.174;9.782;2023-03-03T12:04:15;72.03;;;31.90;;
21657;SDS011;10990;48.174;9.782;2023-03-03T12:06:50;67.67;;;32.23;;
21657;SDS011;10990;48.174;9.782;2023-03-03T12:09:36;68.37;;;32.53;;
21657;SDS011;10990;48.174;9.782;2023-03-03T12:12:09;69.47;;;31.77;;
21657;SDS011;10990;48.174;9.782;2023-03-03T12:14:46;66.73;;;30.13;;
21657;SDS011;10990;48.174;9.782;2023-03-03T12:17:37;73.97;;;34.57;;
21657;SDS011;10990;48.174;9.782;2023-03-03T12:20:14;66.10;;;30.23;;
21657;SDS011;10990;48.174;9.782;2023-03-03T12:22:51;65.03;;;30.97;;
21657;SDS011;10990;48.174;9.782;2023-03-03T12:25:31;65.23;;;31.43;;
21657;SDS011;10990;48.174;9.782;2023-03-03T12:28:02;71.47;;;31.83;;
21657;SDS011;10990;48.174;9.782;2023-03-03T12:30:39;69.23;;;31.63;;
21657;SDS011;10990;48.174;9.782;2023-03-03T12:33:25;63.37;;;30.73;;
21657;SDS011;10990;48.174;9.782;2023-03-03T12:36:04;65.57;;;32.47;;
21657;SDS011;10990;48.174;9.782;2023-03-03T12:38:43;68.93;;;34.10;;
21657;SDS011;10990;48.174;9.782;2023-03-03T12:41:22;64.20;;;30.97;;
21657;SDS011;10990;48.174;9.782;2023-03-03T12:43:58;68.60;;;32.00;;
21657;SDS011;10990;48.174;9.782;2023-03-03T12:46:35;66.93;;;30.67;;
21657;SDS011;10990;48.174;9.782;2023-03-03T12:49:10;72.67;;;31.03;;
21657;SDS011;10990;48.174;9.782;2023-03-03T12:51:41;67.93;;;31.10;;
21657;SDS011;10990;48.174;9.782;2023-03-03T12:54:20;62.07;;;30.23;;
21657;SDS011;10990;48.174;9.782;2023-03-03T12:56:59;70.83;;;32.23;;
21657;SDS011;10990;48.174;9.782;2023-03-03T12:59:32;65.40;;;30.80;;
21657;SDS011;10990;48.174;9.782;2023-03-03T13:02:16;60.00;;;28.97;;
21657;SDS011;10990;48.174;9.782;2023-03-03T13:04:55;61.10;;;28.83;;
21657;SDS011;10990;48.174;9.782;2023-03-03T13:07:30;60.50;;;29.07;;
21657;SDS011;10990;48.174;9.782;2023-03-03T13:10:08;59.67;;;29.53;;
21657;SDS011;10990;48.174;9.782;2023-03-03T13:12:44;65.63;;;29.77;;
21657;SDS011;10990;48.174;9.782;2023-03-03T13:15:17;59.50;;;29.43;;
21657;SDS011;10990;48.174;9.782;2023-03-03T13:17:52;67.20;;;31.43;;
21657;SDS011;10990;48.174;9.782;2023-03-03T13:20:32;62.93;;;28.97;;
21657;SDS011;10990;48.174;9.782;2023-03-03T13:23:07;63.67;;;30.97;;
21657;SDS011;10990;48.174;9.782;2023-03-03T13:25:45;67.03;;;29.77;;
21657;SDS011;10990;48.174;9.782;2023-03-03T13:28:22;63.43;;;31.17;;
21657;SDS011;10990;48.174;9.782;2023-03-03T13:30:57;62.13;;;30.57;;
21657;SDS011;10990;48.174;9.782;2023-03-03T13:33:32;66.23;;;31.47;;
21657;SDS011;10990;48.174;9.782;2023-03-03T13:36:01;64.70;;;31.10;;
21657;SDS011;10990;48.174;9.782;2023-03-03T13:38:31;66.03;;;32.00;;
21657;SDS011;10990;48.174;9.782;2023-03-03T13:41:06;72.67;;;31.87;;
21657;SDS011;10990;48.174;9.782;2023-03-03T13:43:43;58.70;;;29.40;;
21657;SDS011;10990;48.174;9.782;2023-03-03T13:46:14;63.80;;;29.70;;
21657;SDS011;10990;48.174;9.782;2023-03-03T13:51:42;64.67;;;29.53;;
21657;SDS011;10990;48.174;9.782;2023-03-03T13:54:15;66.00;;;30.47;;
21657;SDS011;10990;48.174;9.782;2023-03-03T13:57:03;58.03;;;28.60;;
21657;SDS011;10990;48.174;9.782;2023-03-03T13:59:42;64.67;;;29.43;;
21657;SDS011;10990;48.174;9.782;2023-03-03T14:02:28;62.67;;;29.97;;
21657;SDS011;10990;48.174;9.782;2023-03-03T14:05:11;61.73;;;29.90;;
21657;SDS011;10990;48.174;9.782;2023-03-03T14:07:43;71.07;;;31.93;;
21657;SDS011;10990;48.174;9.782;2023-03-03T14:10:16;60.47;;;29.47;;
21657;SDS011;10990;48.174;9.782;2023-03-03T14:12:46;60.20;;;29.30;;
21657;SDS011;10990;48.174;9.782;2023-03-03T14:15:23;63.60;;;28.77;;
21657;SDS011;10990;48.174;9.782;2023-03-03T14:17:59;59.50;;;29.17;;
21657;SDS011;10990;48.174;9.782;2023-03-03T14:20:33;58.30;;;29.00;;
21657;SDS011;10990;48.174;9.782;2023-03-03T14:23:07;62.73;;;29.10;;
21657;SDS011;10990;48.174;9.782;2023-03-03T14:25:51;63.67;;;29.43;;
21657;SDS011;10990;48.174;9.782;2023-03-03T14:28:22;59.43;;;29.50;;
21657;SDS011;10990;48.174;9.782;2023-03-03T14:30:53;57.40;;;28.23;;
21657;SDS011;10990;48.174;9.782;2023-03-03T14:33:22;58.10;;;28.43;;
21657;SDS011;10990;48.174;9.782;2023-03-03T14:36:01;57.00;;;27.67;;
21657;SDS011;10990;48.174;9.782;2023-03-03T14:38:36;63.73;;;27.53;;
21657;SDS011;10990;48.174;9.782;2023-03-03T14:41:22;64.20;;;30.10;;
21657;SDS011;10990;48.174;9.782;2023-03-03T14:44:01;60.47;;;29.07;;
21657;SDS011;10990;48.174;9.782;2023-03-03T14:47:01;58.97;;;28.60;;
21657;SDS011;10990;48.174;9.782;2023-03-03T14:49:42;58.03;;;28.33;;
21657;SDS011;10990;48.174;9.782;2023-03-03T14:52:10;60.93;;;28.10;;
21657;SDS011;10990;48.174;9.782;2023-03-03T14:54:46;57.40;;;29.00;;
21657;SDS011;10990;48.174;9.782;2023-03-03T14:57:15;59.47;;;28.77;;
21657;SDS011;10990;48.174;9.782;2023-03-03T14:59:54;54.33;;;26.63;;
21657;SDS011;10990;48.174;9.782;2023-03-03T15:02:35;51.30;;;26.83;;
21657;SDS011;10990;48.174;9.782;2023-03-03T15:05:21;49.67;;;26.17;;
21657;SDS011;10990;48.174;9.782;2023-03-03T15:07:50;60.00;;;28.83;;